Time;durP1;ratioP1;P1;durP2;ratioP2;P2;SDS_P1;SDS_P2;PMS_P1;PMS_P2;Temp;Humidity;BMP_temperature;BMP_pressure;BME280_temperature;BME280_humidity;BME280_pressure;Samples;Min_cycle;Max_cycle;Signal;HPM_P1;HPM_P2
2022/10/15 00:01:47;;;;;;;13.05;6.75;;;;;;;16.84;79.94;99521.41;10362483;28;20046;-73
2022/10/15 00:06:49;;;;;;;28.60;8.45;;;;;;;16.89;79.51;99523.44;10356788;28;20073;-70
2022/10/15 00:11:51;;;;;;;18.52;7.40;;;;;;;16.89;79.75;99532.41;10357853;28;20065;-71
2022/10/15 00:16:52;;;;;;;17.88;8.98;;;;;;;16.92;79.42;99501.22;10355647;28;20085;-71
2022/10/15 00:21:53;;;;;;;17.05;7.57;;;;;;;16.90;79.50;99508.78;10358462;28;20121;-69
2022/10/15 00:26:55;;;;;;;16.55;7.05;;;;;;;16.86;79.60;99508.44;10359416;28;20393;-64
2022/10/15 00:31:56;;;;;;;16.65;6.63;;;;;;;16.81;79.54;99503.72;10363898;28;20077;-70
2022/10/15 00:36:58;;;;;;;12.80;6.20;;;;;;;16.82;79.43;99501.84;10370495;28;20034;-70
2022/10/15 00:41:59;;;;;;;14.15;6.90;;;;;;;16.82;79.69;99508.13;10342742;28;20053;-67
2022/10/15 00:47:12;;;;;;;17.52;7.40;;;;;;;16.82;79.62;99507.25;10364231;28;20089;-72
2022/10/15 00:52:18;;;;;;;17.95;7.47;;;;;;;16.75;79.92;99501.94;10351415;28;20112;-73
2022/10/15 00:57:19;;;;;;;19.13;7.50;;;;;;;16.80;79.65;99501.22;10347373;28;20089;-72
2022/10/15 01:02:21;;;;;;;20.05;7.80;;;;;;;16.80;79.42;99493.06;10352830;28;20050;-74
2022/10/15 01:07:23;;;;;;;22.40;8.32;;;;;;;16.89;79.59;99493.59;10342952;28;20109;-74
2022/10/15 01:12:35;;;;;;;21.45;8.82;;;;;;;16.92;79.62;99491.19;10331361;28;20133;-75
2022/10/15 01:17:43;;;;;;;26.95;8.48;;;;;;;16.92;79.33;99493.91;10352195;28;20142;-71
2022/10/15 01:23:15;;;;;;;22.23;8.00;;;;;;;16.98;79.08;99487.53;10343278;28;20084;-72
2022/10/15 01:28:38;;;;;;;28.95;9.25;;;;;;;17.00;79.25;99471.84;10350601;28;20056;-68
2022/10/15 01:33:51;;;;;;;30.95;9.13;;;;;;;17.01;79.07;99478.09;10346090;28;20042;-70
2022/10/15 01:38:59;;;;;;;23.98;8.40;;;;;;;17.02;79.09;99480.56;10346209;28;20070;-75
2022/10/15 01:44:08;;;;;;;29.75;8.75;;;;;;;16.98;79.27;99470.41;10344306;28;20085;-72
2022/10/15 01:49:13;;;;;;;27.83;8.98;;;;;;;17.00;79.26;99462.84;10342773;28;20133;-70
2022/10/15 01:54:17;;;;;;;28.42;9.10;;;;;;;17.03;79.24;99462.38;10346366;28;20124;-72
2022/10/15 01:59:22;;;;;;;38.15;9.95;;;;;;;17.04;79.09;99459.44;10343084;28;20058;-70
2022/10/15 02:04:30;;;;;;;31.25;9.90;;;;;;;17.08;79.26;99464.38;10345201;28;20050;-72
2022/10/15 02:09:41;;;;;;;49.95;11.63;;;;;;;17.06;79.19;99459.16;10314058;28;20583;-71
2022/10/15 02:15:00;;;;;;;74.35;12.75;;;;;;;17.10;79.19;99460.38;10334560;28;20715;-74
2022/10/15 02:20:13;;;;;;;40.38;11.13;;;;;;;17.13;79.05;99450.91;10353995;28;20073;-70
2022/10/15 02:25:20;;;;;;;44.15;11.40;;;;;;;17.15;78.98;99465.06;10354214;28;20056;-74
2022/10/15 02:30:24;;;;;;;46.33;11.07;;;;;;;17.15;79.00;99468.59;10346769;28;20042;-67
2022/10/15 02:35:26;;;;;;;41.72;11.85;;;;;;;17.14;79.31;99475.09;10350135;28;20073;-69
2022/10/15 02:40:33;;;;;;;49.05;12.18;;;;;;;17.02;79.35;99477.00;10354348;28;20050;-69
2022/10/15 02:45:35;;;;;;;39.53;9.20;;;;;;;16.85;79.89;99469.63;10361654;28;20056;-70
2022/10/15 02:50:36;;;;;;;53.17;11.45;;;;;;;16.74;80.39;99467.69;10351705;28;20089;-72
2022/10/15 02:55:38;;;;;;;49.80;10.88;;;;;;;16.92;79.58;99466.75;10355895;28;20129;-71
2022/10/15 03:00:39;;;;;;;68.65;11.30;;;;;;;16.95;79.66;99451.91;10370381;28;20094;-65
2022/10/15 03:05:42;;;;;;;61.55;11.40;;;;;;;16.97;79.23;99456.00;10349717;28;20073;-69
2022/10/15 03:10:45;;;;;;;85.40;12.27;;;;;;;16.98;79.39;99454.97;10351735;28;20054;-68
2022/10/15 03:15:46;;;;;;;74.88;11.75;;;;;;;17.05;79.50;99460.25;10359736;28;20053;-66
2022/10/15 03:20:55;;;;;;;60.58;11.20;;;;;;;17.05;79.34;99452.09;10366444;28;20039;-69
2022/10/15 03:25:56;;;;;;;76.88;12.52;;;;;;;17.03;79.29;99457.75;10358792;28;20046;-63
2022/10/15 03:30:58;;;;;;;83.80;12.38;;;;;;;17.04;79.20;99473.00;10365130;28;20058;-63
2022/10/15 03:36:00;;;;;;;108.38;13.10;;;;;;;17.05;79.47;99468.41;10375722;28;20046;-66
2022/10/15 03:41:01;;;;;;;136.35;14.43;;;;;;;17.05;79.42;99474.66;10385868;28;20045;-65
2022/10/15 03:46:03;;;;;;;64.90;10.60;;;;;;;16.99;79.63;99480.22;10391887;28;20054;-65
2022/10/15 03:51:05;;;;;;;88.35;11.93;;;;;;;16.93;79.78;99483.91;10387016;28;20065;-67
2022/10/15 03:56:06;;;;;;;82.93;12.35;;;;;;;16.95;79.50;99479.06;10390574;28;20046;-63
2022/10/15 04:01:12;;;;;;;84.32;11.68;;;;;;;17.00;79.64;99462.84;10396223;28;20117;-65
2022/10/15 04:06:13;;;;;;;74.90;11.60;;;;;;;17.04;79.29;99472.16;10388642;28;20049;-64
2022/10/15 04:11:15;;;;;;;68.55;10.77;;;;;;;17.05;79.20;99480.06;10392139;28;20050;-65
2022/10/15 04:16:17;;;;;;;69.53;12.15;;;;;;;17.05;79.43;99482.78;10395601;28;20038;-64
2022/10/15 04:21:18;;;;;;;61.97;10.70;;;;;;;16.98;79.54;99482.13;10394682;28;20030;-63
2022/10/15 04:26:19;;;;;;;66.05;10.30;;;;;;;17.00;79.44;99495.44;10388204;28;20038;-66
2022/10/15 04:31:21;;;;;;;59.13;10.13;;;;;;;16.96;79.59;99495.09;10384369;28;20050;-69
2022/10/15 04:36:22;;;;;;;51.03;9.18;;;;;;;16.91;79.73;99496.88;10390018;28;20064;-66
2022/10/15 04:41:23;;;;;;;67.20;11.50;;;;;;;16.77;79.96;99497.09;10359367;28;20062;-66
2022/10/15 04:46:25;;;;;;;67.18;12.40;;;;;;;16.82;80.03;99502.69;10365266;28;20068;-69
2022/10/15 04:51:26;;;;;;;59.65;10.63;;;;;;;16.79;80.21;99491.44;10356395;28;20042;-69
2022/10/15 04:56:28;;;;;;;56.30;11.48;;;;;;;16.88;79.90;99495.44;10352506;28;20081;-68
2022/10/15 05:01:29;;;;;;;54.90;11.13;;;;;;;16.87;79.99;99506.56;10345174;28;20070;-70
2022/10/15 05:06:31;;;;;;;49.75;9.70;;;;;;;16.87;80.17;99525.56;10331168;28;20042;-69
2022/10/15 05:11:36;;;;;;;46.05;10.13;;;;;;;16.88;79.82;99519.88;10350081;28;20128;-71
2022/10/15 05:16:38;;;;;;;52.67;10.07;;;;;;;16.89;79.83;99512.59;10345439;28;20128;-71
2022/10/15 05:21:39;;;;;;;51.92;10.70;;;;;;;16.94;79.61;99507.25;10344718;28;20038;-71
2022/10/15 05:26:41;;;;;;;55.97;10.07;;;;;;;16.95;79.26;99514.34;10345237;28;20042;-72
2022/10/15 05:31:42;;;;;;;42.83;10.02;;;;;;;16.94;79.53;99523.53;10347341;28;20154;-71
2022/10/15 05:36:44;;;;;;;44.45;9.57;;;;;;;16.97;79.47;99518.47;10346642;28;20145;-71
2022/10/15 05:41:45;;;;;;;40.65;9.82;;;;;;;16.94;79.69;99537.13;10326331;28;20062;-71
2022/10/15 05:46:47;;;;;;;38.60;9.75;;;;;;;16.90;79.65;99538.66;10347839;28;20481;-71
2022/10/15 05:51:48;;;;;;;49.72;10.32;;;;;;;16.88;79.54;99547.03;10350243;28;20041;-69
2022/10/15 05:56:49;;;;;;;30.58;8.27;;;;;;;16.88;79.57;99546.22;10329872;28;20450;-70
2022/10/15 06:01:51;;;;;;;31.58;7.72;;;;;;;16.84;79.88;99546.69;10308622;28;20074;-69
2022/10/15 06:06:53;;;;;;;35.45;8.65;;;;;;;16.83;79.76;99563.22;10312423;28;20068;-69
2022/10/15 06:11:54;;;;;;;42.95;9.60;;;;;;;16.84;79.81;99573.00;10321617;28;20097;-69
2022/10/15 06:16:56;;;;;;;35.05;8.82;;;;;;;16.86;79.81;99579.00;10310013;28;20043;-69
2022/10/15 06:21:57;;;;;;;35.97;9.35;;;;;;;16.84;79.77;99594.72;10336426;28;20058;-70
2022/10/15 06:26:59;;;;;;;39.08;9.70;;;;;;;16.87;79.53;99577.16;10333266;28;20042;-70
2022/10/15 06:32:00;;;;;;;40.80;10.52;;;;;;;16.91;79.88;99576.44;10336409;28;20050;-69
2022/10/15 06:37:02;;;;;;;44.45;10.32;;;;;;;16.94;79.78;99585.97;10331971;28;20066;-70
2022/10/15 06:42:04;;;;;;;40.17;9.93;;;;;;;16.93;79.52;99593.31;10334126;28;20069;-71
2022/10/15 06:47:05;;;;;;;35.60;9.00;;;;;;;16.83;80.03;99604.75;10312403;28;20038;-70
2022/10/15 06:52:06;;;;;;;33.75;8.73;;;;;;;16.85;79.86;99607.25;10325790;28;20165;-70
2022/10/15 06:57:08;;;;;;;29.48;7.97;;;;;;;16.82;79.96;99630.25;10350024;28;20355;-64
2022/10/15 07:02:10;;;;;;;20.27;7.00;;;;;;;16.88;79.91;99639.31;10347964;28;20149;-70
2022/10/15 07:07:11;;;;;;;18.23;6.45;;;;;;;16.87;80.15;99637.69;10367964;28;20049;-71
2022/10/15 07:12:13;;;;;;;20.23;6.38;;;;;;;16.95;79.70;99641.94;10345047;28;20063;-71
2022/10/15 07:17:15;;;;;;;17.98;6.32;;;;;;;16.91;80.22;99652.44;10373157;28;20050;-71
2022/10/15 07:22:17;;;;;;;19.52;6.30;;;;;;;16.83;80.29;99647.38;10364544;28;20053;-70
2022/10/15 07:27:19;;;;;;;18.25;6.38;;;;;;;16.91;80.14;99657.88;10363460;28;20061;-70
2022/10/15 07:32:20;;;;;;;16.27;6.60;;;;;;;16.92;80.30;99661.41;10347297;28;20547;-69
2022/10/15 07:37:22;;;;;;;15.15;6.50;;;;;;;16.98;79.65;99661.31;10371910;28;20148;-71
2022/10/15 07:42:24;;;;;;;20.77;6.80;;;;;;;17.01;79.71;99665.44;10350231;28;20072;-72
2022/10/15 07:47:25;;;;;;;18.05;6.65;;;;;;;17.01;79.81;99663.53;10350427;28;20057;-68
2022/10/15 07:52:27;;;;;;;24.15;7.95;;;;;;;17.08;79.61;99670.75;10355501;28;20132;-68
2022/10/15 07:57:28;;;;;;;20.85;8.23;;;;;;;17.07;79.80;99672.63;10312351;28;20142;-68
2022/10/15 08:02:31;;;;;;;22.10;8.70;;;;;;;17.09;79.69;99666.97;10301426;28;20051;-68
2022/10/15 08:07:32;;;;;;;22.20;9.60;;;;;;;17.09;79.66;99675.13;10312083;28;20117;-67
2022/10/15 08:12:34;;;;;;;21.17;10.15;;;;;;;17.06;79.71;99670.97;10290043;28;20122;-70
2022/10/15 08:17:36;;;;;;;25.40;10.07;;;;;;;17.10;79.70;99674.91;10309978;28;20525;-70
2022/10/15 08:22:37;;;;;;;24.27;11.27;;;;;;;17.11;79.80;99684.69;10289701;28;20524;-71
2022/10/15 08:27:39;;;;;;;17.52;9.45;;;;;;;17.13;79.91;99693.41;10291451;28;20073;-71
2022/10/15 08:32:40;;;;;;;18.55;9.85;;;;;;;17.12;80.25;99693.66;10306815;28;20123;-71
2022/10/15 08:37:41;;;;;;;18.20;8.80;;;;;;;17.18;80.23;99703.56;10312121;28;20085;-71
2022/10/15 08:42:45;;;;;;;17.63;8.82;;;;;;;17.30;80.13;99700.84;10290378;28;20055;-71
2022/10/15 08:47:55;;;;;;;12.68;7.80;;;;;;;17.42;79.64;99696.28;10308790;28;20042;-71
2022/10/15 08:52:57;;;;;;;11.40;7.03;;;;;;;17.45;79.83;99696.59;10304745;28;20109;-72
2022/10/15 08:58:06;;;;;;;8.18;6.05;;;;;;;17.60;79.67;99700.75;10341661;28;20054;-71
2022/10/15 09:03:12;;;;;;;9.23;5.47;;;;;;;17.68;79.85;99705.00;10329914;28;20134;-73
2022/10/15 09:08:43;;;;;;;9.70;5.13;;;;;;;17.85;79.59;99705.91;10341741;28;20146;-72
2022/10/15 09:13:46;;;;;;;10.70;5.60;;;;;;;17.98;79.37;99710.28;10336737;28;20042;-72
2022/10/15 09:18:51;;;;;;;8.13;3.90;;;;;;;18.06;79.12;99709.06;10345449;28;20149;-70
2022/10/15 09:24:01;;;;;;;8.07;4.22;;;;;;;18.08;79.33;99712.38;10350507;28;20209;-70
2022/10/15 09:29:22;;;;;;;6.55;3.95;;;;;;;18.15;79.26;99715.78;10347952;28;20050;-69
2022/10/15 09:34:33;;;;;;;4.18;3.50;;;;;;;18.32;78.96;99711.22;10349592;28;20045;-71
2022/10/15 09:39:42;;;;;;;12.32;4.95;;;;;;;18.50;78.83;99717.53;10349663;28;20141;-70
2022/10/15 09:44:45;;;;;;;6.45;4.28;;;;;;;18.57;78.57;99713.59;10325515;28;20086;-70
2022/10/15 09:49:47;;;;;;;8.98;4.45;;;;;;;18.78;78.48;99712.06;10321095;28;20074;-70
2022/10/15 09:55:01;;;;;;;5.10;3.30;;;;;;;18.91;78.51;99710.94;10349738;28;20113;-69
2022/10/15 10:00:07;;;;;;;3.47;2.80;;;;;;;19.03;77.96;99705.41;10349176;28;20133;-70
2022/10/15 10:05:29;;;;;;;9.00;1.90;;;;;;;19.07;78.15;99701.13;10347736;28;20046;-69
2022/10/15 10:10:31;;;;;;;2.38;1.65;;;;;;;19.10;78.28;99697.09;10347148;28;20127;-70
2022/10/15 10:15:34;;;;;;;1.08;0.98;;;;;;;19.36;78.02;99690.94;10330534;28;20046;-69
2022/10/15 10:20:51;;;;;;;1.55;0.60;;;;;;;19.53;77.19;99696.38;10349938;28;20093;-69
2022/10/15 10:25:56;;;;;;;1.02;0.60;;;;;;;19.62;76.85;99700.28;10352257;28;20198;-69
2022/10/15 10:31:02;;;;;;;1.65;0.65;;;;;;;19.87;76.47;99699.03;10350144;28;20073;-69
2022/10/15 10:36:05;;;;;;;0.90;0.53;;;;;;;19.92;76.43;99701.81;10351977;28;20381;-70
2022/10/15 10:41:09;;;;;;;3.60;0.55;;;;;;;20.05;75.33;99710.72;10331167;28;20042;-70
2022/10/15 10:46:14;;;;;;;1.30;0.75;;;;;;;20.00;75.05;99711.44;10354857;28;20046;-71
2022/10/15 10:51:23;;;;;;;1.25;0.70;;;;;;;19.95;74.95;99708.69;10356065;28;20050;-70
2022/10/15 10:56:36;;;;;;;2.50;0.73;;;;;;;19.94;74.43;99701.56;10358738;28;20140;-71
2022/10/15 11:01:38;;;;;;;3.75;0.90;;;;;;;19.77;74.69;99707.09;10358937;28;20061;-70
2022/10/15 11:06:52;;;;;;;1.77;0.98;;;;;;;19.54;74.74;99708.09;10372408;28;20085;-72
2022/10/15 11:11:58;;;;;;;1.25;1.02;;;;;;;19.53;74.74;99704.56;10378617;28;20049;-71
2022/10/15 11:17:14;;;;;;;;;;;;;;;19.41;75.63;99695.63;10409751;28;20041;-72
2022/10/15 11:22:34;;;;;;;1.00;0.90;;;;;;;19.31;75.57;99703.66;10406416;28;19988;-73
2022/10/15 11:27:55;;;;;;;1.10;0.80;;;;;;;19.28;75.44;99690.56;10381802;28;20046;-72
2022/10/15 11:33:05;;;;;;;2.08;0.60;;;;;;;19.39;75.49;99674.09;10405196;28;20030;-74
2022/10/15 11:38:28;;;;;;;1.52;0.70;;;;;;;19.64;75.06;99666.50;10408854;28;20034;-72
2022/10/15 11:43:55;;;;;;;1.75;0.50;;;;;;;19.89;75.10;99666.88;10383941;28;20078;-73
2022/10/15 11:49:12;;;;;;;1.93;0.57;;;;;;;20.04;74.52;99660.75;10401863;28;20076;-72
2022/10/15 11:54:34;;;;;;;1.05;0.50;;;;;;;20.20;74.15;99659.00;10433748;23;20042;-73
2022/10/15 11:59:49;;;;;;;1.98;0.50;;;;;;;20.26;73.80;99652.56;10367421;28;20046;-73
2022/10/15 12:04:54;;;;;;;1.02;0.40;;;;;;;20.27;73.50;99653.38;10363788;28;20034;-72
2022/10/15 12:10:12;;;;;;;4.00;0.90;;;;;;;20.19;73.46;99658.19;10363689;28;20097;-72
2022/10/15 12:15:34;;;;;;;5.03;0.70;;;;;;;20.13;73.51;99652.94;10346645;28;20038;-72
2022/10/15 12:20:35;;;;;;;2.65;0.70;;;;;;;20.08;73.96;99647.44;10362920;28;20034;-72
2022/10/15 12:25:40;;;;;;;1.15;0.70;;;;;;;19.94;74.31;99647.81;10357823;28;20054;-72
2022/10/15 12:30:53;;;;;;;1.48;0.77;;;;;;;19.82;74.44;99636.22;10350256;28;20288;-72
2022/10/15 12:35:59;;;;;;;1.40;1.30;;;;;;;19.65;74.93;99649.06;10351157;28;20054;-70
2022/10/15 12:41:03;;;;;;;;;;;;;;;19.48;75.91;99643.69;10321361;28;20595;-70
2022/10/15 12:46:07;;;;;;;4.88;2.05;;;;;;;19.25;76.38;99626.44;10310618;28;20024;-70
2022/10/15 12:51:20;;;;;;;2.55;2.35;;;;;;;19.21;76.58;99617.97;10311617;28;20134;-69
2022/10/15 12:56:24;;;;;;;5.82;2.80;;;;;;;19.27;76.46;99618.03;10303268;28;20101;-68
2022/10/15 13:01:46;;;;;;;3.60;2.30;;;;;;;19.08;76.87;99612.06;10310561;28;20100;-70
2022/10/15 13:06:47;;;;;;;5.35;2.25;;;;;;;19.12;77.08;99610.50;10311428;28;20073;-71
2022/10/15 13:11:55;;;;;;;2.08;1.90;;;;;;;19.08;77.21;99604.72;10306565;28;20130;-69
2022/10/15 13:16:58;;;;;;;2.08;1.85;;;;;;;19.09;77.34;99600.06;10306230;28;20577;-70
2022/10/15 13:22:02;;;;;;;2.75;1.80;;;;;;;19.17;76.92;99605.94;10309378;28;20054;-69
2022/10/15 13:27:14;;;;;;;5.78;1.70;;;;;;;19.05;77.49;99601.66;10307419;28;20138;-68
2022/10/15 13:32:15;;;;;;;3.95;1.48;;;;;;;18.81;78.17;99632.63;10303967;28;20051;-68
2022/10/15 13:37:28;;;;;;;5.22;1.52;;;;;;;18.67;78.62;99627.72;10304142;28;20081;-68
2022/10/15 13:42:30;;;;;;;6.63;1.27;;;;;;;18.81;78.39;99624.44;10301383;28;20203;-69
2022/10/15 13:47:36;;;;;;;4.28;0.98;;;;;;;18.92;78.17;99619.19;10304364;28;20102;-70
2022/10/15 13:52:52;;;;;;;5.43;0.85;;;;;;;19.00;78.00;99610.59;10302722;28;20502;-70
2022/10/15 13:58:17;;;;;;;1.27;0.60;;;;;;;18.99;78.15;99603.47;10302943;28;20078;-67
2022/10/15 14:03:28;;;;;;;2.67;0.60;;;;;;;18.87;78.74;99616.38;10276988;28;20174;-68
2022/10/15 14:08:34;;;;;;;3.08;0.88;;;;;;;18.82;78.86;99617.94;10285255;28;20065;-68
2022/10/15 14:13:49;;;;;;;1.02;0.57;;;;;;;18.77;79.06;99617.81;10302475;28;20146;-69
2022/10/15 14:18:55;;;;;;;4.70;0.60;;;;;;;18.78;78.99;99608.59;10309076;28;20730;-70
2022/10/15 14:24:12;;;;;;;4.77;1.20;;;;;;;18.82;78.88;99623.38;10287154;28;20062;-70
2022/10/15 14:29:34;;;;;;;2.88;0.70;;;;;;;18.97;78.71;99616.53;10307785;28;20054;-69
2022/10/15 14:34:38;;;;;;;1.33;0.65;;;;;;;19.05;78.83;99612.56;10302852;28;20085;-70
2022/10/15 14:39:40;;;;;;;1.95;0.30;;;;;;;19.02;78.65;99630.22;10300140;28;20047;-70
2022/10/15 14:44:47;;;;;;;0.68;0.20;;;;;;;19.01;78.31;99625.84;10286893;28;20049;-70
2022/10/15 14:49:56;;;;;;;;;;;;;;;18.97;79.28;99636.41;10286602;28;20124;-70
2022/10/15 14:55:06;;;;;;;0.93;0.20;;;;;;;18.91;78.87;99639.31;10299969;28;19926;-70
2022/10/15 15:00:28;;;;;;;0.55;0.30;;;;;;;18.91;78.57;99642.03;10294912;28;20048;-70
2022/10/15 15:05:29;;;;;;;0.30;0.05;;;;;;;18.91;78.55;99648.28;10301857;28;20121;-69
2022/10/15 15:10:30;;;;;;;0.30;0.30;;;;;;;18.95;78.12;99652.16;10284384;28;20133;-70
2022/10/15 15:15:32;;;;;;;0.20;0.15;;;;;;;18.99;78.09;99652.50;10296328;28;20129;-70
2022/10/15 15:20:33;;;;;;;1.13;0.20;;;;;;;19.04;77.97;99655.31;10304905;28;20081;-69
2022/10/15 15:25:36;;;;;;;0.85;0.55;;;;;;;19.01;77.96;99651.16;10294532;28;20082;-69
2022/10/15 15:30:41;;;;;;;4.00;0.20;;;;;;;19.00;77.94;99637.81;10303505;28;20052;-70
2022/10/15 15:35:50;;;;;;;1.90;0.30;;;;;;;19.06;77.64;99653.16;10303874;28;20082;-70
2022/10/15 15:40:51;;;;;;;2.15;0.40;;;;;;;19.06;77.83;99661.34;10307903;28;20074;-70
2022/10/15 15:45:52;;;;;;;1.30;0.70;;;;;;;19.08;77.47;99661.91;10313635;28;20123;-72
2022/10/15 15:51:00;;;;;;;0.95;0.40;;;;;;;19.16;77.45;99666.13;10309701;28;20046;-72
2022/10/15 15:56:01;;;;;;;1.08;0.30;;;;;;;19.19;77.17;99663.72;10302865;28;20085;-69
2022/10/15 16:01:03;;;;;;;0.20;0.20;;;;;;;19.11;77.27;99653.22;10292010;28;20074;-70
2022/10/15 16:06:06;;;;;;;1.20;0.43;;;;;;;19.13;77.26;99661.16;10288295;28;20074;-70
2022/10/15 16:11:07;;;;;;;1.38;0.38;;;;;;;19.11;77.42;99658.69;10307017;28;20405;-70
2022/10/15 16:16:09;;;;;;;4.15;0.88;;;;;;;19.15;77.37;99667.19;10313260;28;20141;-71
2022/10/15 16:21:10;;;;;;;1.00;0.57;;;;;;;19.12;77.32;99681.31;10311464;28;20137;-69
2022/10/15 16:26:12;;;;;;;1.73;0.40;;;;;;;19.05;77.34;99672.47;10310010;28;20082;-69
2022/10/15 16:31:19;;;;;;;2.58;0.50;;;;;;;18.99;77.50;99679.75;10314545;28;20248;-70
2022/10/15 16:36:20;;;;;;;3.85;0.85;;;;;;;18.96;77.75;99681.06;10308764;28;20074;-70
2022/10/15 16:41:22;;;;;;;2.78;0.30;;;;;;;18.97;77.51;99696.31;10310257;28;20050;-71
2022/10/15 16:46:23;;;;;;;0.40;0.10;;;;;;;18.95;77.53;99703.91;10304318;28;20125;-71
2022/10/15 16:51:25;;;;;;;0.47;0.20;;;;;;;18.94;77.27;99715.09;10306241;28;20069;-74
2022/10/15 16:56:28;;;;;;;0.20;0.10;;;;;;;18.99;77.27;99715.16;10306603;28;20086;-73
2022/10/15 17:01:29;;;;;;;1.75;0.20;;;;;;;18.98;77.17;99729.88;10309019;28;20576;-76
2022/10/15 17:06:31;;;;;;;1.60;0.30;;;;;;;19.00;77.42;99719.53;10311105;28;20050;-72
2022/10/15 17:11:35;;;;;;;1.50;0.60;;;;;;;18.99;77.47;99729.59;10312190;28;20126;-73
2022/10/15 17:16:39;;;;;;;0.80;0.52;;;;;;;19.02;77.22;99733.75;10306596;28;20498;-72
2022/10/15 17:21:40;;;;;;;2.67;0.52;;;;;;;18.92;77.66;99741.75;10304424;28;20118;-75
2022/10/15 17:26:45;;;;;;;3.42;0.50;;;;;;;18.84;77.91;99740.25;10296390;28;20048;-70
2022/10/15 17:31:47;;;;;;;4.00;0.60;;;;;;;18.81;78.05;99749.72;10303449;28;20142;-73
2022/10/15 17:36:49;;;;;;;1.52;0.40;;;;;;;18.78;77.91;99755.63;10290734;28;20061;-73
2022/10/15 17:41:51;;;;;;;1.35;0.40;;;;;;;18.62;78.75;99757.25;10297005;28;20134;-74
2022/10/15 17:46:52;;;;;;;2.25;0.60;;;;;;;18.46;78.79;99763.44;10285614;28;20050;-72
2022/10/15 17:51:54;;;;;;;1.33;0.50;;;;;;;18.26;79.60;99769.31;10293948;28;20061;-66
2022/10/15 17:56:55;;;;;;;1.90;1.15;;;;;;;18.02;80.35;99780.25;10284310;28;20125;-65
2022/10/15 18:01:58;;;;;;;3.25;1.30;;;;;;;17.79;81.10;99793.84;10283201;28;20134;-65
2022/10/15 18:07:01;;;;;;;2.40;1.58;;;;;;;17.79;81.29;99799.28;10300075;28;20445;-63
2022/10/15 18:12:03;;;;;;;4.85;1.83;;;;;;;17.75;81.29;99804.38;10306613;28;20706;-71
2022/10/15 18:17:04;;;;;;;5.25;2.15;;;;;;;17.77;81.38;99801.41;10308488;28;20042;-68
2022/10/15 18:22:05;;;;;;;3.63;2.53;;;;;;;17.76;81.30;99795.16;10305079;28;20070;-72
2022/10/15 18:27:07;;;;;;;5.88;3.40;;;;;;;17.78;81.49;99801.19;10303445;28;20046;-74
2022/10/15 18:32:08;;;;;;;8.38;3.65;;;;;;;17.82;81.21;99807.78;10290620;28;21255;-72
2022/10/15 18:37:09;;;;;;;4.40;1.85;;;;;;;17.74;81.61;99815.50;10307171;28;20042;-74
2022/10/15 18:42:11;;;;;;;5.25;3.20;;;;;;;17.79;81.53;99818.31;10304151;28;20097;-68
2022/10/15 18:47:12;;;;;;;7.82;2.63;;;;;;;17.85;81.45;99828.25;10302469;28;20129;-71
2022/10/15 18:52:14;;;;;;;4.72;2.10;;;;;;;17.71;81.90;99833.09;10300948;28;20050;-70
2022/10/15 18:57:35;;;;;;;2.67;2.03;;;;;;;17.76;81.86;99837.84;10311771;28;20757;-71
2022/10/15 19:02:37;;;;;;;3.33;2.22;;;;;;;17.82;81.72;99834.16;10289027;28;20052;-68
2022/10/15 19:07:38;;;;;;;3.90;2.67;;;;;;;17.74;82.32;99842.69;10297524;28;20073;-70
2022/10/15 19:12:40;;;;;;;5.80;3.22;;;;;;;17.85;82.03;99836.41;10304685;28;20054;-69
2022/10/15 19:17:41;;;;;;;6.15;4.10;;;;;;;17.94;81.37;99840.44;10318891;28;20142;-71
2022/10/15 19:22:44;;;;;;;9.63;5.13;;;;;;;17.96;81.50;99830.16;10315053;28;20193;-71
2022/10/15 19:27:45;;;;;;;6.35;5.22;;;;;;;17.96;81.62;99837.50;10312931;28;20113;-69
2022/10/15 19:32:46;;;;;;;6.22;4.97;;;;;;;18.03;81.06;99820.00;10311990;28;20446;-70
2022/10/15 19:37:48;;;;;;;6.30;5.10;;;;;;;18.03;81.32;99828.16;10331594;28;20050;-73
2022/10/15 19:42:49;;;;;;;6.07;4.65;;;;;;;18.03;81.14;99841.75;10311105;28;20049;-73
2022/10/15 19:47:51;;;;;;;6.97;4.30;;;;;;;18.02;81.51;99842.81;10311529;28;20574;-74
2022/10/15 19:52:52;;;;;;;8.57;5.30;;;;;;;18.03;81.33;99858.06;10315339;28;20129;-74
2022/10/15 19:57:53;;;;;;;10.02;5.43;;;;;;;18.05;81.35;99863.28;10322429;28;20077;-69
2022/10/15 20:02:55;;;;;;;7.63;5.22;;;;;;;18.02;81.33;99859.13;10318344;28;20091;-64
2022/10/15 20:07:56;;;;;;;8.30;4.18;;;;;;;17.99;81.29;99878.66;10299225;28;20129;-73
2022/10/15 20:12:58;;;;;;;10.35;6.65;;;;;;;18.04;81.23;99884.19;10279405;28;20082;-71
2022/10/15 20:17:59;;;;;;;6.07;3.70;;;;;;;18.03;80.74;99879.84;10311574;28;20059;-70
2022/10/15 20:23:01;;;;;;;7.53;4.20;;;;;;;17.97;81.16;99888.09;10297767;28;20051;-71
2022/10/15 20:28:02;;;;;;;8.70;4.57;;;;;;;17.99;81.22;99900.41;10311375;28;20126;-72
2022/10/15 20:33:05;;;;;;;5.70;5.20;;;;;;;17.99;81.22;99894.97;10304674;28;20141;-72
2022/10/15 20:38:06;;;;;;;5.60;4.82;;;;;;;18.08;81.08;99897.34;10304306;28;20137;-72
2022/10/15 20:43:08;;;;;;;4.90;4.50;;;;;;;18.00;81.15;99896.63;10307736;28;20070;-75
2022/10/15 20:48:17;;;;;;;7.47;5.28;;;;;;;18.02;81.18;99893.66;10300936;28;20078;-70
2022/10/15 20:53:20;;;;;;;6.25;4.20;;;;;;;17.96;81.54;99916.38;10318282;28;20089;-71
2022/10/15 20:58:21;;;;;;;5.72;4.43;;;;;;;17.98;81.25;99928.66;10306011;28;20065;-69
2022/10/15 21:03:24;;;;;;;6.95;5.65;;;;;;;18.06;81.35;99937.53;10304776;28;20047;-67
2022/10/15 21:08:26;;;;;;;6.78;4.47;;;;;;;18.18;80.97;99932.94;10305664;28;20081;-74
2022/10/15 21:13:27;;;;;;;4.50;3.47;;;;;;;18.19;80.87;99926.44;10305026;28;20130;-72
2022/10/15 21:18:29;;;;;;;6.32;2.78;;;;;;;18.22;80.81;99925.94;10306333;28;20050;-67
2022/10/15 21:23:31;;;;;;;3.63;2.28;;;;;;;18.23;80.66;99944.75;10300948;28;20642;-69
2022/10/15 21:28:33;;;;;;;4.93;2.50;;;;;;;18.22;80.66;99947.72;10306387;28;20138;-75
2022/10/15 21:33:35;;;;;;;3.70;2.50;;;;;;;18.21;80.91;99949.63;10304344;28;20053;-73
2022/10/15 21:38:36;;;;;;;2.25;1.67;;;;;;;18.19;80.53;99943.59;10292946;28;20984;-73
2022/10/15 21:43:37;;;;;;;4.40;1.98;;;;;;;18.14;80.39;99929.03;10284728;28;20101;-71
2022/10/15 21:48:41;;;;;;;4.65;1.75;;;;;;;18.10;80.63;99944.16;10299210;28;20050;-70
2022/10/15 21:53:42;;;;;;;4.00;2.10;;;;;;;18.05;80.45;99955.78;10300181;28;20101;-69
2022/10/15 21:58:44;;;;;;;2.78;1.35;;;;;;;17.98;80.16;99963.19;10311214;28;20077;-73
2022/10/15 22:03:47;;;;;;;3.55;1.05;;;;;;;17.92;79.98;99958.69;10287404;28;20525;-72
2022/10/15 22:08:48;;;;;;;1.40;1.13;;;;;;;17.82;79.81;99983.72;10303941;28;20169;-73
2022/10/15 22:13:52;;;;;;;2.92;1.10;;;;;;;17.71;80.32;99998.91;10296744;28;20493;-72
2022/10/15 22:18:55;;;;;;;1.83;1.20;;;;;;;17.71;80.07;99990.75;10299341;28;20582;-72
2022/10/15 22:24:02;;;;;;;4.18;0.95;;;;;;;17.73;80.08;99998.69;10300602;28;20074;-72
2022/10/15 22:29:06;;;;;;;2.05;1.00;;;;;;;17.70;80.36;100008.16;10294185;28;20132;-70
2022/10/15 22:34:08;;;;;;;3.70;0.90;;;;;;;17.75;80.19;100004.72;10301750;28;20054;-71
2022/10/15 22:39:12;;;;;;;1.20;0.50;;;;;;;17.72;79.94;100003.31;10303784;28;20141;-72
2022/10/15 22:44:16;;;;;;;0.60;0.52;;;;;;;17.62;80.12;100022.06;10306697;28;20462;-71
2022/10/15 22:49:20;;;;;;;7.10;0.52;;;;;;;17.60;80.16;100005.97;10303710;28;20656;-69
2022/10/15 22:54:22;;;;;;;2.10;0.60;;;;;;;17.59;80.18;100000.78;10305305;28;20126;-68
2022/10/15 22:59:23;;;;;;;1.52;0.40;;;;;;;17.51;80.08;100015.50;10310729;28;20085;-69
2022/10/15 23:04:24;;;;;;;1.15;0.45;;;;;;;17.43;80.37;100013.94;10308923;28;20054;-68
2022/10/15 23:09:26;;;;;;;5.00;0.50;;;;;;;17.41;80.03;100007.06;10305143;28;20118;-66
2022/10/15 23:14:27;;;;;;;1.67;0.50;;;;;;;17.35;80.42;100002.56;10294613;28;20138;-72
2022/10/15 23:19:29;;;;;;;3.40;0.47;;;;;;;17.27;80.40;100020.00;10312466;28;20400;-67
2022/10/15 23:24:30;;;;;;;0.70;0.40;;;;;;;17.30;80.08;100019.56;10305891;28;20062;-70
2022/10/15 23:29:32;;;;;;;1.90;0.50;;;;;;;17.30;80.06;100038.59;10289196;28;20074;-70